KCFD/CFD METAR and TAF weather

Enter ICAO airport designator
Station Type Date Time Source
KCFD METAR 2019/08/19 07:55 UTC NOAA

KCFD 190755Z AUTO 16006KT 10SM BKN015 28/27 A2995 RMK AO2 T02770268


Station Type Date Time Source
KCFD Decoded METAR 2019/08/19 07:55 UTC NOAA

Station name not available
Aug 19, 2019 - 03:55 AM EDT / 2019.08.19 0755 UTC
Wind: from the SSE (160 degrees) at 7 MPH (6 KT):0
Visibility: 10 mile(s):0
Sky conditions: mostly cloudy
Temperature: 81.9 F (27.7 C)
Dew Point: 80.2 F (26.8 C)
Relative Humidity: 94%
Pressure (altimeter): 29.95 in. Hg (1014 hPa)
ob: KCFD 190755Z AUTO 16006KT 10SM BKN015 28/27 A2995 RMK AO2 T02770268
cycle: 8

Station Type Date Time Source
KCFD TAF UTC NOAA

Error!

Example: see airport list